Martin State Airport
KMTN : now visible

Airfield :











YOU CAN JOIN US ON...

 
LOGIN :

Register | Disclaimer

   EN    FR    IT 

 









Legend :    VFR   Marginal VFR   IFR   Intensive IFR   Very Intensive IFR
Visi :
Ceiling :
>= 8 km
>= 3000ft
5 to 8 km
1000 to 3000 ft
1500m to 5 km
500 to 1000 ft
800 to 1500m
200 to 500 ft
< 800m
< 200 ft
Symbols :   Thunderstorms  Fog  Heavy snow  Heavy precipitations  Wind > 20 kt







- Airport Elevation : 21 ft


KMTN - Martin State

CURRENT METAR :
  • 210221Z AUTO 15005KT 10SM BKN100 17/09 A2980 RMK AO2

EXPIRED METARs :
  • 210203Z AUTO 15006KT 10SM SCT100 17/08 A2980 RMK AO2
  • 210045Z 18009KT 10SM SCT100 18/10 A2978
  • 202345Z 15014G18KT 10SM SCT070 BKN100 18/13 A2976

TAF KMTN
Valid from the 21 at 00:00 until the 22 at 00:00 UTC


202330Z 2100/2124 15008G16KT P6SM BKN070
FM210400 18006KT P6SM BKN050
FM211800 14008KT P6SM BKN050
KZDC FIR / North America



MET'MAP, your aeronautical weather chart ! - Copyright ORBIFLY December 2007 - Disclaimer

ORBIFLY MET'MAP TEAM :

Programming & Development : Alexandra Zaïnal
Concept & Development : Baudouin d'Aumeries
Co-Development & Prog : Marc-Olivier Méhu
Technical & hardware support : Manuel Goepfert

Contact : metmap@orbifly.com




SOURCES & CREDITS :

   NOAA       Earth
Advisory